createdAt,value
2023-05-16T00:03:28.487Z,90.21
2023-05-16T00:08:31.420Z,90.38
2023-05-16T00:13:33.557Z,88.35
2023-05-16T00:18:39.360Z,88.46
2023-05-16T00:23:41.447Z,87.71
2023-05-16T00:28:43.525Z,86.11
2023-05-16T00:33:45.650Z,87.16
2023-05-16T00:38:47.909Z,88.66
2023-05-16T00:43:50.362Z,87.72
2023-05-16T00:48:52.826Z,87.91
2023-05-16T00:53:57.012Z,87.80
2023-05-16T00:58:59.717Z,88.88
2023-05-16T01:04:02.411Z,89.77
2023-05-16T01:09:06.080Z,89.10
2023-05-16T01:14:49.615Z,91.50
2023-05-16T01:20:17.600Z,92.42
2023-05-16T01:26:07.678Z,89.45
2023-05-16T01:31:09.853Z,89.00
2023-05-16T01:36:40.999Z,90.89
2023-05-16T01:42:12.895Z,88.91
2023-05-16T01:47:19.627Z,88.91
2023-05-16T01:52:45.328Z,89.13
2023-05-16T01:57:50.622Z,89.20
2023-05-16T02:02:53.018Z,90.69
2023-05-16T02:07:55.777Z,91.20
2023-05-16T02:12:58.079Z,90.90
2023-05-16T02:18:00.274Z,92.44
2023-05-16T02:23:03.468Z,95.91
2023-05-16T02:28:07.593Z,96.45
2023-05-16T02:33:11.611Z,95.67
2023-05-16T02:38:17.605Z,95.88
2023-05-16T02:43:19.813Z,93.88
2023-05-16T02:48:22.393Z,94.80
2023-05-16T02:53:24.752Z,93.38
2023-05-16T02:58:26.951Z,95.19
2023-05-16T03:03:30.199Z,94.93
2023-05-16T03:08:32.759Z,93.94
2023-05-16T03:13:34.936Z,94.80
2023-05-16T03:18:37.308Z,91.13
2023-05-16T03:23:39.651Z,94.07
2023-05-16T03:28:41.917Z,96.69
2023-05-16T03:33:44.210Z,97.95
2023-05-16T03:38:46.333Z,96.70
2023-05-16T03:43:48.442Z,96.18
2023-05-16T03:48:50.616Z,95.74
2023-05-16T03:53:52.970Z,98.08
2023-05-16T03:58:55.330Z,99.80
2023-05-16T04:03:57.451Z,98.62
2023-05-16T04:08:59.572Z,98.96
2023-05-16T04:14:02.021Z,100.00
2023-05-16T04:19:04.499Z,100.00
2023-05-16T04:24:07.760Z,100.00
2023-05-16T04:29:10.321Z,98.91
2023-05-16T04:34:13.321Z,98.50
2023-05-16T04:39:15.628Z,100.00
2023-05-16T04:44:17.870Z,98.35
2023-05-16T04:49:20.684Z,99.47
2023-05-16T04:54:23.078Z,98.29
2023-05-16T04:59:25.802Z,96.53
2023-05-16T05:04:27.965Z,95.69
2023-05-16T05:09:30.151Z,94.54
2023-05-16T05:14:32.265Z,93.65
2023-05-16T05:19:34.481Z,92.72
2023-05-16T05:24:37.197Z,93.12
2023-05-16T05:29:40.471Z,92.93
2023-05-16T05:34:42.585Z,89.88
2023-05-16T05:39:45.278Z,93.45
2023-05-16T05:44:47.423Z,92.51
2023-05-16T05:49:50.551Z,90.01
2023-05-16T05:54:52.988Z,91.97
2023-05-16T05:59:55.477Z,93.00
2023-05-16T06:04:57.706Z,92.59
2023-05-16T06:10:05.274Z,90.53
2023-05-16T06:15:08.706Z,92.87
2023-05-16T06:20:11.981Z,91.94
2023-05-16T06:25:14.189Z,89.42
2023-05-16T06:30:16.319Z,90.30
2023-05-16T06:35:18.638Z,91.02
2023-05-16T06:40:21.070Z,92.49
2023-05-16T06:45:23.516Z,93.28
2023-05-16T06:50:28.525Z,100.00
2023-05-16T06:55:30.963Z,89.14
2023-05-16T07:00:33.305Z,93.23
2023-05-16T07:05:35.556Z,89.09
2023-05-16T07:10:37.929Z,89.30
2023-05-16T07:15:40.139Z,87.79
2023-05-16T07:20:42.397Z,88.68
2023-05-16T07:25:44.950Z,93.49
2023-05-16T07:30:47.449Z,88.37
2023-05-16T07:35:51.122Z,87.29
2023-05-16T07:40:54.224Z,85.99
2023-05-16T07:45:56.799Z,88.02
2023-05-16T07:50:59.187Z,84.49
2023-05-16T07:56:01.534Z,86.83
2023-05-16T08:01:03.994Z,82.51
2023-05-16T08:06:06.693Z,84.46
2023-05-16T08:11:09.051Z,84.42
2023-05-16T08:16:12.091Z,79.75
2023-05-16T08:21:14.783Z,81.42
2023-05-16T08:26:18.519Z,79.15
2023-05-16T08:31:21.462Z,85.39
2023-05-16T08:36:26.652Z,83.37
2023-05-16T08:41:29.547Z,81.45
2023-05-16T08:46:36.967Z,80.31
2023-05-16T08:51:40.453Z,80.60
2023-05-16T08:56:44.483Z,82.08
2023-05-16T09:01:47.758Z,81.64
2023-05-16T09:06:51.257Z,82.24
2023-05-16T09:11:53.709Z,82.54
2023-05-16T09:17:10.223Z,81.00
2023-05-16T09:22:15.970Z,81.45
2023-05-16T09:27:18.563Z,80.39
2023-05-16T09:32:21.049Z,77.21
2023-05-16T09:37:23.372Z,79.22
2023-05-16T09:42:26.219Z,75.55
2023-05-16T09:47:29.072Z,74.04
2023-05-16T09:52:31.401Z,79.62
2023-05-16T09:57:33.716Z,74.04
2023-05-16T10:02:38.859Z,67.56
2023-05-16T10:07:43.166Z,60.66
2023-05-16T10:12:46.243Z,69.71
2023-05-16T10:17:53.804Z,69.74
2023-05-16T10:22:58.648Z,68.43
2023-05-16T10:28:02.773Z,73.00
2023-05-16T10:33:05.315Z,72.74
2023-05-16T10:38:12.161Z,69.06
2023-05-16T10:43:28.110Z,72.66
2023-05-16T10:48:36.502Z,74.01
2023-05-16T10:53:38.626Z,75.31
2023-05-16T10:58:46.637Z,76.03
2023-05-16T11:03:57.925Z,78.23
2023-05-16T11:09:06.111Z,79.00
2023-05-16T11:14:08.839Z,80.38
2023-05-16T11:19:11.170Z,80.82
2023-05-16T11:24:30.383Z,81.45
2023-05-16T11:29:36.715Z,84.13
2023-05-16T11:34:39.838Z,83.83
2023-05-16T11:39:42.368Z,81.91
2023-05-16T11:44:45.481Z,84.75
2023-05-16T11:49:49.558Z,83.90
2023-05-16T11:54:52.166Z,83.32
2023-05-16T11:59:54.989Z,84.66
2023-05-16T12:04:57.351Z,80.90
2023-05-16T12:09:59.621Z,85.00
2023-05-16T12:15:04.621Z,81.05
2023-05-16T12:20:13.658Z,77.96
2023-05-16T12:25:28.979Z,81.63
2023-05-16T12:30:33.399Z,81.08
2023-05-16T12:35:39.697Z,80.13
2023-05-16T12:40:44.355Z,79.41
2023-05-16T12:45:55.213Z,78.04
2023-05-16T12:50:57.649Z,76.89
2023-05-16T12:55:59.877Z,78.44
2023-05-16T13:01:02.370Z,80.86
2023-05-16T13:06:05.102Z,79.53
2023-05-16T13:11:07.419Z,78.83
2023-05-16T13:16:10.512Z,77.79
2023-05-16T13:21:12.851Z,76.72
2023-05-16T13:26:15.207Z,76.76
2023-05-16T13:31:17.613Z,73.29
2023-05-16T13:36:19.951Z,76.29
2023-05-16T13:41:22.690Z,76.14
2023-05-16T13:46:25.364Z,75.85
2023-05-16T13:51:27.703Z,76.77
2023-05-16T13:56:29.861Z,76.06
2023-05-16T14:01:32.109Z,76.32
2023-05-16T14:06:34.497Z,75.88
2023-05-16T14:11:36.689Z,77.56
2023-05-16T14:16:39.236Z,77.14
2023-05-16T14:21:41.749Z,75.59
2023-05-16T14:26:44.038Z,75.20
2023-05-16T14:31:47.376Z,76.82
2023-05-16T14:36:49.768Z,81.13
2023-05-16T14:41:52.591Z,78.79
2023-05-16T14:46:55.720Z,75.78
2023-05-16T14:51:58.044Z,71.90
2023-05-16T14:57:00.434Z,75.94
2023-05-16T15:02:02.791Z,73.36
2023-05-16T15:07:05.299Z,69.18
2023-05-16T15:12:08.326Z,68.97
2023-05-16T15:17:10.961Z,69.85
2023-05-16T15:22:13.337Z,70.03
2023-05-16T15:27:15.991Z,68.15
2023-05-16T15:32:18.755Z,71.72
2023-05-16T15:37:21.553Z,70.34
2023-05-16T15:42:23.850Z,74.52
2023-05-16T15:47:27.631Z,71.54
2023-05-16T15:52:29.792Z,71.52
2023-05-16T15:57:32.095Z,70.60
2023-05-16T16:02:34.478Z,69.54
2023-05-16T16:07:36.885Z,72.73
2023-05-16T16:12:40.201Z,73.70
2023-05-16T16:17:42.428Z,69.71
2023-05-16T16:22:44.642Z,71.94
2023-05-16T16:27:46.783Z,68.63
2023-05-16T16:32:49.179Z,70.88
2023-05-16T16:38:05.706Z,69.22
2023-05-16T16:43:09.437Z,67.94
2023-05-16T16:48:11.978Z,71.34
2023-05-16T16:53:14.298Z,69.00
2023-05-16T16:58:16.458Z,64.71
2023-05-16T17:03:19.066Z,64.68
2023-05-16T17:08:21.799Z,67.03
2023-05-16T17:13:24.133Z,62.49
2023-05-16T17:18:27.001Z,66.79
2023-05-16T17:23:29.186Z,69.12
2023-05-16T17:28:32.697Z,69.61
2023-05-16T17:33:34.997Z,66.39
2023-05-16T17:38:37.196Z,68.29
2023-05-16T17:43:39.473Z,66.10
2023-05-16T17:48:42.400Z,66.34
2023-05-16T17:53:45.292Z,65.96
2023-05-16T17:58:47.520Z,61.88
2023-05-16T18:03:50.100Z,61.75
2023-05-16T18:08:52.388Z,65.66
2023-05-16T18:13:54.962Z,64.33
2023-05-16T18:18:58.473Z,64.45
2023-05-16T18:24:00.918Z,64.81
2023-05-16T18:29:03.829Z,62.89
2023-05-16T18:34:05.971Z,64.25
2023-05-16T18:39:10.781Z,63.62
2023-05-16T18:44:13.547Z,67.86
2023-05-16T18:49:16.372Z,61.33
2023-05-16T18:54:18.503Z,60.91
2023-05-16T18:59:21.330Z,76.20
2023-05-16T19:04:23.976Z,74.81
2023-05-16T19:09:26.558Z,74.01
2023-05-16T19:14:28.798Z,69.64
2023-05-16T19:19:31.526Z,69.14
2023-05-16T19:24:33.831Z,70.34
2023-05-16T19:29:36.271Z,70.42
2023-05-16T19:34:38.480Z,69.08
2023-05-16T19:39:40.800Z,63.03
2023-05-16T19:44:43.251Z,67.71
2023-05-16T19:49:45.741Z,66.52
2023-05-16T19:54:47.944Z,67.05
2023-05-16T19:59:52.719Z,67.90
2023-05-16T20:04:55.345Z,65.30
2023-05-16T20:09:57.715Z,61.00
2023-05-16T20:15:00.128Z,63.06
2023-05-16T20:20:02.971Z,66.83
2023-05-16T20:25:10.531Z,65.92
2023-05-16T20:30:13.560Z,65.39
2023-05-16T20:35:16.129Z,60.83
2023-05-16T20:40:18.496Z,66.82
2023-05-16T20:45:21.074Z,64.93
2023-05-16T20:50:23.262Z,61.95
2023-05-16T20:55:26.716Z,64.33
2023-05-16T21:00:29.190Z,67.78
2023-05-16T21:05:33.735Z,64.91
2023-05-16T21:10:36.047Z,65.26
2023-05-16T21:15:38.645Z,64.78
2023-05-16T21:20:40.857Z,64.23
2023-05-16T21:25:43.021Z,60.88
2023-05-16T21:30:45.216Z,62.31
2023-05-16T21:35:47.436Z,62.55
2023-05-16T21:40:49.634Z,65.19
2023-05-16T21:45:51.957Z,61.87
2023-05-16T21:50:54.319Z,62.92
2023-05-16T21:55:56.894Z,65.26
2023-05-16T22:00:59.077Z,62.05
2023-05-16T22:06:01.616Z,59.18
2023-05-16T22:11:03.816Z,64.46
2023-05-16T22:16:06.860Z,66.23
2023-05-16T22:21:09.040Z,62.95
2023-05-16T22:26:11.304Z,64.95
2023-05-16T22:31:13.599Z,65.66
2023-05-16T22:36:15.909Z,60.98
2023-05-16T22:41:18.183Z,63.03
2023-05-16T22:46:23.145Z,64.46
2023-05-16T22:51:25.825Z,58.53
2023-05-16T22:56:28.121Z,63.86
2023-05-16T23:01:30.644Z,62.28
2023-05-16T23:06:32.909Z,65.68
2023-05-16T23:11:35.302Z,65.78
2023-05-16T23:16:37.635Z,63.14
2023-05-16T23:21:40.154Z,65.30
2023-05-16T23:26:42.414Z,66.11
2023-05-16T23:31:45.569Z,64.77
2023-05-16T23:36:47.671Z,67.96
2023-05-16T23:41:49.791Z,60.59
2023-05-16T23:46:51.988Z,65.89
2023-05-16T23:51:57.863Z,65.35
2023-05-16T23:57:00.915Z,62.19
